Time;durP1;ratioP1;P1;durP2;ratioP2;P2;SDS_P1;SDS_P2;PMS_P1;PMS_P2;Temp;Humidity;BMP_temperature;BMP_pressure;BME280_temperature;BME280_humidity;BME280_pressure;Samples;Min_cycle;Max_cycle;Signal;HPM_P1;HPM_P2
2022/11/02 00:00:28;;;;;;;17.88;8.52;;;;;;;12.28;66.13;101053.25;5070178;28;20040;-74
2022/11/02 00:02:53;;;;;;;17.67;8.85;;;;;;;12.36;66.50;101066.53;5070224;28;20107;-74
2022/11/02 00:05:23;;;;;;;20.27;8.95;;;;;;;12.26;66.27;101035.91;5069891;28;20056;-74
2022/11/02 00:07:52;;;;;;;13.32;8.05;;;;;;;12.41;66.06;101058.91;5069927;28;20142;-74
2022/11/02 00:10:19;;;;;;;17.95;8.10;;;;;;;12.46;65.79;101066.06;5069895;28;20413;-74
2022/11/02 00:12:45;;;;;;;18.73;9.10;;;;;;;12.49;65.67;101067.88;5070014;28;20047;-74
2022/11/02 00:15:11;;;;;;;18.85;8.27;;;;;;;12.50;65.62;101063.56;5069781;28;20028;-75
2022/11/02 00:17:39;;;;;;;19.40;8.85;;;;;;;12.42;65.43;101060.69;5070039;28;20021;-73
2022/11/02 00:20:05;;;;;;;15.80;8.63;;;;;;;12.35;66.00;101062.16;5069798;28;20548;-73
2022/11/02 00:22:32;;;;;;;16.88;8.27;;;;;;;12.25;66.26;101067.78;5069497;28;20120;-73
2022/11/02 00:24:59;;;;;;;19.23;9.15;;;;;;;11.95;66.43;101051.06;5070037;28;20029;-73
2022/11/02 00:27:25;;;;;;;16.15;8.60;;;;;;;12.02;66.84;101062.56;5069650;28;20486;-73
2022/11/02 00:29:50;;;;;;;18.58;9.00;;;;;;;11.81;67.41;101066.03;5070277;28;20028;-73
2022/11/02 00:32:16;;;;;;;17.50;8.95;;;;;;;11.76;68.00;101046.84;5051905;28;20465;-74
2022/11/02 00:34:41;;;;;;;20.05;9.32;;;;;;;11.76;68.14;101057.19;5070052;28;20028;-73
2022/11/02 00:37:07;;;;;;;19.02;9.48;;;;;;;11.75;68.37;101055.44;5051512;28;20047;-73
2022/11/02 00:39:33;;;;;;;18.23;9.60;;;;;;;11.53;68.63;101011.41;5069504;28;20043;-73
2022/11/02 00:41:59;;;;;;;18.85;9.27;;;;;;;11.69;69.08;101039.66;5070263;28;20024;-74
2022/11/02 00:44:24;;;;;;;16.35;8.70;;;;;;;11.57;69.68;101031.38;5069467;28;20417;-74
2022/11/02 00:46:49;;;;;;;15.13;9.02;;;;;;;11.62;69.45;101037.63;5073641;28;20032;-73
2022/11/02 00:49:15;;;;;;;16.00;9.32;;;;;;;11.41;70.31;101037.59;5073760;28;20032;-74
2022/11/02 00:51:42;;;;;;;16.40;8.90;;;;;;;11.32;70.54;101036.38;5072321;28;20494;-74
2022/11/02 00:54:07;;;;;;;18.23;9.40;;;;;;;11.42;70.57;101039.38;5055649;28;20486;-74
2022/11/02 00:56:33;;;;;;;16.25;9.07;;;;;;;11.47;70.41;101041.31;5073853;28;20055;-74
2022/11/02 00:58:58;;;;;;;17.88;10.05;;;;;;;11.27;70.02;100987.91;5073635;28;20036;-74
2022/11/02 01:01:23;;;;;;;18.33;9.73;;;;;;;11.55;70.63;101025.25;5073552;28;20040;-74
2022/11/02 01:03:49;;;;;;;17.77;9.23;;;;;;;11.64;69.74;101034.28;5073685;28;20098;-74
2022/11/02 01:06:14;;;;;;;16.10;8.82;;;;;;;11.51;64.35;101026.81;5073425;28;20073;-74
2022/11/02 01:08:43;;;;;;;16.48;8.50;;;;;;;11.44;62.94;101015.34;5055467;28;20482;-74
2022/11/02 01:11:15;;;;;;;19.30;8.10;;;;;;;11.43;62.68;101028.22;5073505;28;20063;-74
2022/11/02 01:13:40;;;;;;;13.82;8.32;;;;;;;11.30;63.99;101024.22;5073545;28;20090;-74
2022/11/02 01:16:06;;;;;;;18.20;8.40;;;;;;;10.76;64.91;100924.59;5073151;28;20029;-74
2022/11/02 01:18:32;;;;;;;16.83;8.75;;;;;;;11.28;65.71;101024.16;5073350;28;20074;-74
2022/11/02 01:20:58;;;;;;;17.58;9.02;;;;;;;10.93;66.05;100951.16;5072942;28;20024;-74
2022/11/02 01:23:24;;;;;;;18.08;8.80;;;;;;;11.32;66.70;101025.16;5072122;28;20379;-74
2022/11/02 01:25:50;;;;;;;16.08;9.20;;;;;;;10.73;66.82;100929.66;5073147;28;20061;-74
2022/11/02 01:28:16;;;;;;;13.32;8.10;;;;;;;11.27;67.06;101024.97;5073368;28;20070;-74
2022/11/02 01:30:41;;;;;;;19.20;8.95;;;;;;;11.23;67.24;101011.88;5073011;28;20059;-72
2022/11/02 01:33:06;;;;;;;21.70;9.48;;;;;;;11.10;68.08;101024.25;5073106;28;20035;-72
2022/11/02 01:35:32;;;;;;;16.17;9.02;;;;;;;10.94;68.48;101016.63;5072944;28;20048;-73
2022/11/02 01:37:57;;;;;;;17.40;8.60;;;;;;;10.65;68.44;100962.88;5055016;28;20025;-73
2022/11/02 01:40:23;;;;;;;18.60;9.23;;;;;;;10.98;68.35;101021.13;5072803;28;20028;-73
2022/11/02 01:42:48;;;;;;;16.17;8.20;;;;;;;11.03;67.97;101029.97;5072745;28;20085;-74
2022/11/02 01:45:14;;;;;;;19.27;10.00;;;;;;;10.95;67.73;101026.13;5072922;28;20029;-73
2022/11/02 01:47:43;;;;;;;17.40;8.93;;;;;;;10.94;67.04;101016.63;5072813;28;20034;-74
2022/11/02 01:50:16;;;;;;;15.18;8.75;;;;;;;11.01;66.84;101018.66;5072629;28;20032;-74
2022/11/02 01:52:42;;;;;;;18.65;8.63;;;;;;;11.02;66.88;101025.59;5072766;28;20072;-73
2022/11/02 01:55:24;;;;;;;16.67;8.35;;;;;;;10.91;67.37;101022.53;5072546;28;20097;-73
2022/11/02 01:57:56;;;;;;;16.35;8.63;;;;;;;10.74;68.72;101016.63;5071839;28;20490;-73
2022/11/02 02:00:22;;;;;;;21.15;9.15;;;;;;;10.64;68.47;101023.09;5072454;28;20035;-73
2022/11/02 02:02:50;;;;;;;20.40;9.20;;;;;;;10.57;69.14;101027.91;5072460;28;20025;-73
2022/11/02 02:05:17;;;;;;;17.52;9.30;;;;;;;10.42;69.60;101026.38;5072719;28;20455;-73
2022/11/02 02:07:43;;;;;;;14.30;9.48;;;;;;;10.28;69.47;100992.16;5072488;28;20016;-72
2022/11/02 02:10:10;;;;;;;14.93;9.10;;;;;;;10.36;69.96;101018.34;5072482;28;20035;-72
2022/11/02 02:12:38;;;;;;;16.52;9.52;;;;;;;10.07;70.25;100981.69;5054406;28;20020;-73
2022/11/02 02:15:04;;;;;;;19.02;8.98;;;;;;;10.26;70.26;101008.38;5072224;28;20028;-74
2022/11/02 02:17:57;;;;;;;20.90;9.38;;;;;;;10.22;70.68;101011.59;5072305;28;20032;-73
2022/11/02 02:20:35;;;;;;;16.45;9.00;;;;;;;9.64;71.18;100920.34;5054134;28;20017;-73
2022/11/02 02:23:10;;;;;;;15.27;9.10;;;;;;;10.10;72.63;101014.50;5072220;28;20047;-73
2022/11/02 02:25:59;;;;;;;17.88;9.02;;;;;;;10.02;73.06;101016.72;5071983;28;20020;-73
2022/11/02 02:28:36;;;;;;;14.35;9.15;;;;;;;10.03;72.68;101018.47;5054205;28;20082;-73
2022/11/02 02:31:14;;;;;;;15.65;9.48;;;;;;;9.89;71.52;101020.38;5071803;28;20032;-73
2022/11/02 02:33:55;;;;;;;15.25;9.55;;;;;;;9.62;70.84;100979.56;5071758;28;20119;-73
2022/11/02 02:36:28;;;;;;;20.23;9.68;;;;;;;9.80;71.48;101015.66;5072110;28;20032;-73
2022/11/02 02:38:57;;;;;;;15.48;8.68;;;;;;;9.86;71.16;101015.97;5071913;28;20456;-73
2022/11/02 02:41:34;;;;;;;17.73;8.55;;;;;;;9.81;71.09;101021.72;5071661;28;20456;-74
2022/11/02 02:44:02;;;;;;;16.77;9.90;;;;;;;9.63;71.35;101001.97;5068357;28;20065;-74
2022/11/02 02:46:36;;;;;;;13.05;9.38;;;;;;;9.67;70.66;101013.28;5058722;28;20032;-74
2022/11/02 02:49:04;;;;;;;15.93;8.10;;;;;;;9.64;70.09;101008.00;5060851;28;20032;-73
2022/11/02 02:51:31;;;;;;;17.27;8.88;;;;;;;9.68;70.20;101015.06;5067921;28;20043;-74
2022/11/02 02:54:09;;;;;;;13.82;8.20;;;;;;;9.65;70.36;101009.75;5071470;28;20037;-74
2022/11/02 02:56:38;;;;;;;15.80;8.73;;;;;;;9.67;69.43;101013.28;5071382;28;20024;-74
2022/11/02 02:59:06;;;;;;;16.27;9.05;;;;;;;9.41;69.55;100960.44;5070435;28;20118;-74
2022/11/02 03:01:33;;;;;;;16.15;9.25;;;;;;;9.78;69.65;101007.00;5071491;28;20028;-74
2022/11/02 03:03:59;;;;;;;17.48;9.63;;;;;;;9.84;69.65;101006.38;5053606;28;20036;-75
2022/11/02 03:06:32;;;;;;;16.20;9.20;;;;;;;9.96;69.58;101004.41;5071404;28;20025;-74
2022/11/02 03:09:04;;;;;;;17.05;9.52;;;;;;;9.37;69.09;100893.31;5070178;28;20103;-74
2022/11/02 03:11:30;;;;;;;15.98;9.30;;;;;;;9.91;69.38;100979.22;5052746;28;20086;-75
2022/11/02 03:14:32;;;;;;;21.38;9.52;;;;;;;10.12;69.77;101008.59;5051426;28;20032;-74
2022/11/02 03:17:15;;;;;;;17.85;10.18;;;;;;;10.00;69.65;101013.16;5051431;28;20029;-74
2022/11/02 03:19:49;;;;;;;17.27;10.60;;;;;;;9.91;69.92;101005.88;5051389;28;20033;-75
2022/11/02 03:22:25;;;;;;;16.90;9.93;;;;;;;9.91;69.60;101008.47;5051295;28;20081;-74
2022/11/02 03:25:02;;;;;;;15.73;8.98;;;;;;;9.88;69.29;101008.28;5051382;28;20032;-74
2022/11/02 03:27:38;;;;;;;17.08;9.80;;;;;;;9.66;69.31;101002.09;5033099;28;20040;-74
2022/11/02 03:30:14;;;;;;;16.63;8.95;;;;;;;9.47;69.57;101009.72;5016592;28;20029;-75
2022/11/02 03:33:04;;;;;;;16.27;8.40;;;;;;;9.39;68.50;100999.94;5049829;28;20379;-75
2022/11/02 03:35:39;;;;;;;14.32;9.23;;;;;;;9.52;68.46;101010.84;5034069;28;20033;-75
2022/11/02 03:38:16;;;;;;;15.63;10.30;;;;;;;9.23;69.53;100954.47;5032986;28;20086;-74
2022/11/02 03:40:46;;;;;;;17.27;9.90;;;;;;;9.52;70.44;101011.72;5051042;28;20032;-74
2022/11/02 03:43:13;;;;;;;22.67;10.23;;;;;;;9.51;71.24;101015.13;5050672;28;20049;-73
2022/11/02 03:45:44;;;;;;;18.30;9.70;;;;;;;9.50;71.91;101008.19;5050985;28;20036;-73
2022/11/02 03:48:11;;;;;;;15.02;9.38;;;;;;;9.50;72.16;101004.72;5049421;28;20040;-73
2022/11/02 03:50:43;;;;;;;18.65;9.52;;;;;;;9.45;72.30;101011.34;5051183;28;20041;-73
2022/11/02 03:53:25;;;;;;;16.92;9.98;;;;;;;9.46;72.23;101003.69;5050704;28;20804;-73
2022/11/02 03:55:57;;;;;;;19.85;9.77;;;;;;;9.42;72.56;101006.03;5050774;28;20040;-73
2022/11/02 03:58:22;;;;;;;17.02;10.65;;;;;;;9.39;72.53;101001.59;5050602;28;20108;-73
2022/11/02 04:00:57;;;;;;;17.92;9.63;;;;;;;9.29;72.74;101000.25;5050793;28;20528;-73
2022/11/02 04:03:23;;;;;;;19.52;9.73;;;;;;;9.19;73.33;100998.91;5050835;28;20033;-73
2022/11/02 04:05:49;;;;;;;15.40;10.52;;;;;;;9.19;74.50;100992.88;5049310;28;20037;-73
2022/11/02 04:08:23;;;;;;;23.33;10.77;;;;;;;9.02;75.49;100974.88;5050467;28;20105;-73
2022/11/02 04:16:20;;;;;;;22.63;12.25;;;;;;;8.88;79.32;100994.78;5050582;28;20102;-74
2022/11/02 04:21:29;;;;;;;17.20;11.23;;;;;;;8.92;79.21;101002.63;5053705;28;20039;-73
2022/11/02 04:26:39;;;;;;;20.35;10.77;;;;;;;8.77;79.23;100998.44;5054634;28;20505;-73
2022/11/02 04:29:04;;;;;;;19.90;11.75;;;;;;;8.76;79.52;100995.78;5054565;28;20029;-73
2022/11/02 04:31:30;;;;;;;17.83;10.75;;;;;;;8.79;79.57;100990.81;5054504;28;20036;-73
2022/11/02 04:33:58;;;;;;;18.25;10.90;;;;;;;8.74;79.69;100993.16;5054387;28;20031;-73
2022/11/02 04:36:24;;;;;;;17.05;11.70;;;;;;;8.78;80.34;100999.34;5054462;28;20032;-73
2022/11/02 04:38:50;;;;;;;18.75;12.98;;;;;;;8.77;79.96;100987.28;5054388;28;20047;-74
2022/11/02 04:44:03;;;;;;;21.70;11.77;;;;;;;8.79;80.58;100991.69;5073917;28;20525;-74
2022/11/02 04:46:30;;;;;;;17.67;12.50;;;;;;;8.69;81.05;100990.31;5074394;28;20036;-76
2022/11/02 04:48:56;;;;;;;17.65;11.00;;;;;;;8.62;80.62;100987.34;5074293;28;20030;-76
2022/11/02 04:51:23;;;;;;;15.73;11.50;;;;;;;8.69;80.80;100992.03;5055997;28;20740;-75
2022/11/02 04:53:50;;;;;;;21.90;12.80;;;;;;;8.69;80.27;100976.59;5073787;28;20025;-74
2022/11/02 04:56:16;;;;;;;39.92;12.93;;;;;;;8.73;79.90;100987.13;5056099;28;20462;-73
2022/11/02 04:58:42;;;;;;;20.45;11.63;;;;;;;8.83;79.18;100993.63;5073965;28;20103;-73
2022/11/02 05:01:11;;;;;;;22.42;12.65;;;;;;;8.88;78.59;100997.34;5072472;28;20028;-73
2022/11/02 05:03:36;;;;;;;17.88;11.63;;;;;;;8.88;78.43;100999.91;5073976;28;20111;-73
2022/11/02 05:06:02;;;;;;;22.50;11.98;;;;;;;8.88;78.23;100997.34;5073291;28;20108;-74
2022/11/02 05:08:28;;;;;;;17.85;10.70;;;;;;;8.86;78.00;100995.47;5073467;28;20032;-75
2022/11/02 05:10:57;;;;;;;22.40;11.27;;;;;;;8.78;78.11;100989.91;5073123;28;20032;-75
2022/11/02 05:13:24;;;;;;;28.70;18.52;;;;;;;8.49;78.03;100949.78;5073132;28;20032;-74
2022/11/02 05:15:50;;;;;;;25.25;18.55;;;;;;;8.71;78.18;101005.84;5073290;28;20056;-74
2022/11/02 05:18:15;;;;;;;22.83;15.45;;;;;;;8.42;78.27;100967.44;5073308;28;20048;-75
2022/11/02 05:20:41;;;;;;;22.75;12.40;;;;;;;8.48;79.33;101013.22;5073080;28;20023;-75
2022/11/02 05:23:07;;;;;;;20.48;12.65;;;;;;;8.31;81.08;101008.81;5073444;28;20039;-75
2022/11/02 05:25:33;;;;;;;21.23;11.82;;;;;;;8.34;81.20;101011.56;5073398;28;20478;-74
2022/11/02 05:27:58;;;;;;;16.85;10.95;;;;;;;8.33;81.05;101002.94;5072670;28;20505;-76
2022/11/02 05:30:25;;;;;;;19.35;11.85;;;;;;;8.52;81.31;101010.03;5073243;28;20086;-76
2022/11/02 05:32:56;;;;;;;23.73;12.38;;;;;;;8.57;81.28;101005.09;5071920;28;20475;-76
2022/11/02 05:35:21;;;;;;;17.73;11.90;;;;;;;8.69;81.10;101008.34;5071283;28;20066;-75
2022/11/02 05:37:47;;;;;;;25.90;12.40;;;;;;;8.70;82.20;101020.41;5073126;28;20052;-76
2022/11/02 05:40:13;;;;;;;27.08;13.88;;;;;;;8.65;82.75;101013.25;5071639;28;20051;-76
2022/11/02 05:42:38;;;;;;;30.20;15.80;;;;;;;8.81;83.12;101021.00;5071937;28;20032;-74
2022/11/02 05:45:04;;;;;;;32.22;16.83;;;;;;;8.89;83.48;101029.13;5049782;28;20523;-75
2022/11/02 05:47:30;;;;;;;22.30;14.18;;;;;;;8.84;84.21;101017.69;5072807;28;20036;-74
2022/11/02 05:49:55;;;;;;;25.38;14.52;;;;;;;8.82;84.69;101020.19;5073005;28;20089;-74
2022/11/02 05:52:21;;;;;;;27.55;14.48;;;;;;;8.92;84.63;101028.38;5073197;28;20038;-74
2022/11/02 05:54:47;;;;;;;46.97;14.27;;;;;;;9.03;83.83;101032.41;5072260;28;20113;-74
2022/11/02 05:57:12;;;;;;;21.02;13.00;;;;;;;9.16;82.54;101033.91;5072449;28;20112;-74
2022/11/02 05:59:38;;;;;;;20.42;12.82;;;;;;;9.14;82.26;101033.84;5072547;28;20116;-74
2022/11/02 06:02:03;;;;;;;24.60;14.13;;;;;;;9.28;82.76;101037.13;5071173;28;20528;-74
2022/11/02 06:04:28;;;;;;;21.05;13.75;;;;;;;9.32;81.82;101027.88;5072581;28;20446;-74
2022/11/02 06:06:54;;;;;;;24.33;13.65;;;;;;;9.26;80.87;100982.09;5054475;28;20032;-74
2022/11/02 06:09:19;;;;;;;21.92;13.40;;;;;;;9.66;80.44;101029.59;5071944;28;20470;-74
2022/11/02 06:11:45;;;;;;;23.60;14.02;;;;;;;9.35;80.43;100982.53;5072047;28;20028;-72
2022/11/02 06:14:10;;;;;;;27.80;15.02;;;;;;;9.34;81.64;100979.88;5072028;28;20466;-74
2022/11/02 06:16:36;;;;;;;21.88;14.88;;;;;;;9.45;82.23;100981.31;5072281;28;20386;-73
2022/11/02 06:19:01;;;;;;;25.08;14.80;;;;;;;9.89;81.41;101025.53;5072396;28;20067;-73
2022/11/02 06:21:28;;;;;;;28.67;14.77;;;;;;;10.00;80.72;101021.78;5072229;28;20818;-72
2022/11/02 06:23:53;;;;;;;27.80;15.32;;;;;;;10.06;81.15;101036.69;5072223;28;20176;-72
2022/11/02 06:26:19;;;;;;;45.67;17.25;;;;;;;10.07;80.82;101012.66;5053846;28;20033;-73
2022/11/02 06:28:44;;;;;;;32.13;15.35;;;;;;;10.27;80.69;101023.91;5072284;28;20017;-73
2022/11/02 06:31:10;;;;;;;22.33;15.68;;;;;;;10.42;80.63;101031.53;5053788;28;20033;-73
2022/11/02 06:33:35;;;;;;;21.70;14.65;;;;;;;10.46;79.95;101030.84;5029212;28;20038;-73
2022/11/02 06:36:00;;;;;;;25.08;16.08;;;;;;;10.65;79.53;101031.69;5029231;28;20038;-73
2022/11/02 06:38:26;;;;;;;23.10;16.17;;;;;;;10.78;79.32;101017.63;5029391;28;20044;-73
2022/11/02 06:41:03;;;;;;;29.27;18.05;;;;;;;10.96;78.85;101022.75;5012798;28;20029;-73
2022/11/02 06:43:28;;;;;;;27.08;16.35;;;;;;;11.12;78.36;101032.06;5028694;28;20049;-71
2022/11/02 06:45:55;;;;;;;23.70;16.05;;;;;;;11.15;78.51;101004.66;5029316;28;20164;-74
2022/11/02 06:48:21;;;;;;;33.10;16.13;;;;;;;11.38;78.60;101014.22;5028513;28;20609;-74
2022/11/02 06:50:46;;;;;;;30.77;17.70;;;;;;;11.41;78.75;101011.75;5028904;28;20022;-73
2022/11/02 06:53:12;;;;;;;28.27;17.15;;;;;;;11.61;79.00;101015.16;5028579;28;20048;-74
2022/11/02 06:55:37;;;;;;;28.27;17.10;;;;;;;11.44;78.63;100966.22;5028626;28;20088;-74
2022/11/02 06:58:03;;;;;;;28.73;16.55;;;;;;;11.59;79.37;100965.06;5028747;28;20033;-74
2022/11/02 07:00:29;;;;;;;30.33;18.05;;;;;;;11.94;80.16;101002.72;5028519;28;20065;-74
2022/11/02 07:03:02;;;;;;;53.22;30.67;;;;;;;12.16;80.13;101005.31;5028687;28;20103;-74
2022/11/02 07:05:28;;;;;;;31.52;19.85;;;;;;;12.28;81.05;101004.06;5047561;28;20414;-75
2022/11/02 07:07:54;;;;;;;25.63;19.25;;;;;;;12.41;80.67;101007.13;5069454;28;20021;-74
2022/11/02 07:10:19;;;;;;;35.60;19.40;;;;;;;12.49;81.50;101016.09;5070848;28;20401;-74
2022/11/02 07:12:45;;;;;;;38.63;22.92;;;;;;;12.57;81.83;100998.22;5071254;28;20028;-74
2022/11/02 07:15:10;;;;;;;30.33;22.45;;;;;;;12.74;82.37;101009.22;5070319;28;20104;-74
2022/11/02 07:17:39;;;;;;;40.78;25.40;;;;;;;12.83;82.71;101004.38;5070837;28;20115;-75
2022/11/02 07:20:06;;;;;;;31.23;22.00;;;;;;;13.06;82.04;101004.31;5050493;28;20037;-75
2022/11/02 07:22:31;;;;;;;35.47;24.23;;;;;;;13.13;82.10;100998.50;5071127;28;20123;-75
2022/11/02 07:24:57;;;;;;;33.53;21.92;;;;;;;13.02;82.46;100967.06;5048250;28;20128;-76
2022/11/02 07:27:22;;;;;;;34.78;23.30;;;;;;;13.42;82.49;101003.84;5048258;28;20033;-73
2022/11/02 07:29:48;;;;;;;35.22;23.58;;;;;;;13.51;82.92;100987.75;5047522;28;20037;-72
2022/11/02 07:32:15;;;;;;;33.80;22.50;;;;;;;13.69;82.68;100998.69;5045579;28;20067;-73
2022/11/02 07:34:40;;;;;;;37.17;22.05;;;;;;;13.83;82.77;100993.06;5047100;28;20068;-74
2022/11/02 07:37:06;;;;;;;28.33;20.60;;;;;;;13.98;81.58;100978.00;5044282;28;20128;-73
2022/11/02 07:39:31;;;;;;;34.63;21.15;;;;;;;14.20;80.33;100976.94;5041936;28;20044;-73
2022/11/02 07:41:57;;;;;;;29.23;17.73;;;;;;;14.41;79.12;100975.81;5041603;28;20036;-74
2022/11/02 07:44:23;;;;;;;26.90;19.98;;;;;;;14.60;77.88;100977.22;5041730;28;20111;-74
2022/11/02 07:46:49;;;;;;;31.42;22.58;;;;;;;14.69;77.51;100969.75;5042411;28;20033;-74
2022/11/02 07:49:14;;;;;;;28.45;18.17;;;;;;;14.61;77.07;100944.34;5042582;28;20037;-74
2022/11/02 07:51:40;;;;;;;30.85;18.27;;;;;;;14.83;76.45;100959.72;5028773;28;20029;-74
2022/11/02 07:54:06;;;;;;;30.27;17.40;;;;;;;14.83;76.52;100930.25;5045953;28;20040;-72
2022/11/02 07:56:31;;;;;;;24.33;16.55;;;;;;;15.00;75.15;100931.59;5050392;28;20055;-73
2022/11/02 07:58:57;;;;;;;25.55;16.13;;;;;;;15.14;74.66;100947.53;5049377;28;20447;-73
2022/11/02 08:01:22;;;;;;;27.30;15.50;;;;;;;15.28;74.27;100957.44;5048599;28;20029;-73
2022/11/02 08:03:48;;;;;;;23.67;14.90;;;;;;;15.17;73.44;100892.13;5049418;28;20035;-73
2022/11/02 08:06:13;;;;;;;21.45;14.38;;;;;;;15.53;73.18;100940.69;5052058;28;20127;-73
2022/11/02 08:08:39;;;;;;;22.20;14.77;;;;;;;15.65;72.44;100942.69;5049166;28;20024;-73
2022/11/02 08:11:06;;;;;;;20.95;14.38;;;;;;;15.48;72.01;100900.69;5048115;28;20029;-73
2022/11/02 08:13:32;;;;;;;20.90;13.55;;;;;;;15.82;71.18;100928.38;5049330;28;20032;-73
2022/11/02 08:15:57;;;;;;;26.77;15.05;;;;;;;16.03;70.52;100931.44;5049083;28;20493;-73
2022/11/02 08:18:25;;;;;;;21.77;13.57;;;;;;;16.05;70.88;100922.81;5055494;28;20060;-73
2022/11/02 08:20:51;;;;;;;22.13;14.20;;;;;;;16.21;70.12;100916.19;5048196;28;20400;-73
2022/11/02 08:23:18;;;;;;;20.13;13.57;;;;;;;16.33;69.36;100910.38;5049479;28;20013;-72
2022/11/02 08:25:45;;;;;;;19.45;13.18;;;;;;;16.48;68.56;100907.19;5049391;28;20048;-74
2022/11/02 08:28:26;;;;;;;22.08;13.80;;;;;;;16.68;67.98;100909.31;5048963;28;20490;-74
2022/11/02 08:30:52;;;;;;;18.98;12.00;;;;;;;16.77;67.30;100894.72;5061971;28;20025;-74
2022/11/02 08:33:18;;;;;;;17.38;12.02;;;;;;;16.96;66.95;100905.53;5066422;28;20060;-73
2022/11/02 08:35:45;;;;;;;18.10;10.77;;;;;;;17.10;66.06;100900.53;5064527;28;20029;-73
2022/11/02 08:38:12;;;;;;;22.27;11.27;;;;;;;17.22;65.03;100890.31;5070248;28;20079;-72
2022/11/02 08:40:37;;;;;;;17.65;11.60;;;;;;;17.29;65.05;100893.88;5069340;28;20033;-73
2022/11/02 08:43:08;;;;;;;21.23;11.95;;;;;;;17.42;64.69;100890.63;5051213;28;20052;-72
2022/11/02 08:45:35;;;;;;;15.98;11.40;;;;;;;17.55;64.16;100896.91;5059101;28;20119;-75
2022/11/02 08:48:00;;;;;;;18.90;11.43;;;;;;;17.74;63.68;100887.59;5061765;28;20125;-76
2022/11/02 08:50:26;;;;;;;16.73;10.38;;;;;;;17.73;62.79;100859.75;5060065;28;20405;-73
2022/11/02 08:52:52;;;;;;;20.20;10.40;;;;;;;18.06;61.98;100876.75;5069549;28;20090;-74
2022/11/02 08:55:18;;;;;;;17.10;11.18;;;;;;;18.31;61.69;100879.66;5069635;28;20090;-74
2022/11/02 08:57:48;;;;;;;17.67;11.38;;;;;;;18.39;60.95;100871.91;5068324;28;20478;-74
2022/11/02 09:00:15;;;;;;;14.13;9.38;;;;;;;18.18;60.26;100804.59;5069710;28;20024;-74
2022/11/02 09:02:41;;;;;;;17.98;10.38;;;;;;;18.54;59.77;100838.09;5068317;28;20570;-74
2022/11/02 09:05:10;;;;;;;14.70;6.05;;;;;;;18.80;55.41;100857.50;5069614;28;20111;-74
2022/11/02 09:07:39;;;;;;;16.38;6.30;;;;;;;19.01;55.09;100854.22;5072154;28;20039;-74
2022/11/02 09:10:06;;;;;;;15.07;8.05;;;;;;;19.10;56.09;100859.53;5055114;28;20573;-74
2022/11/02 09:12:31;;;;;;;17.17;8.80;;;;;;;19.14;56.62;100837.78;5054693;28;20071;-74
2022/11/02 09:14:57;;;;;;;19.35;9.40;;;;;;;19.38;56.61;100844.03;5073025;28;20036;-73
2022/11/02 09:17:22;;;;;;;13.38;7.15;;;;;;;19.42;54.66;100819.63;5068242;28;20107;-76
2022/11/02 09:19:48;;;;;;;14.32;7.20;;;;;;;19.83;52.26;100842.56;5048408;28;20029;-73
2022/11/02 09:22:13;;;;;;;16.67;5.53;;;;;;;19.82;50.81;100814.59;5063307;28;20463;-74
2022/11/02 09:24:39;;;;;;;17.50;5.20;;;;;;;20.11;49.44;100828.72;5065229;28;20103;-75
2022/11/02 09:27:05;;;;;;;13.50;4.97;;;;;;;20.08;48.62;100819.09;5054940;28;20020;-74
2022/11/02 09:29:30;;;;;;;28.75;5.70;;;;;;;20.08;47.33;100798.13;5054815;28;20035;-74
2022/11/02 09:31:56;;;;;;;13.43;5.13;;;;;;;20.27;45.97;100782.44;5072514;28;20021;-75
2022/11/02 09:34:21;;;;;;;19.17;5.38;;;;;;;20.57;48.09;100820.09;5055018;28;20055;-73
2022/11/02 09:36:46;;;;;;;15.48;5.18;;;;;;;20.51;45.71;100803.47;5071004;28;20104;-74
2022/11/02 09:39:12;;;;;;;11.43;5.25;;;;;;;20.65;44.86;100805.25;5072446;28;20027;-74
2022/11/02 09:42:00;;;;;;;15.02;6.78;;;;;;;20.48;44.76;100765.88;5072672;28;20385;-73
2022/11/02 09:44:53;;;;;;;15.98;6.32;;;;;;;20.72;44.27;100807.00;5072588;28;20133;-74
2022/11/02 09:47:21;;;;;;;14.73;5.47;;;;;;;20.86;44.25;100801.78;5072259;28;20099;-74
2022/11/02 09:49:47;;;;;;;14.13;5.63;;;;;;;21.06;44.06;100801.75;5054641;28;20024;-73
2022/11/02 09:52:39;;;;;;;14.05;6.05;;;;;;;21.08;43.43;100788.63;5071196;28;20174;-73
2022/11/02 09:55:14;;;;;;;11.25;4.90;;;;;;;21.21;41.87;100794.72;5071834;28;20047;-73
2022/11/02 09:57:44;;;;;;;15.40;5.20;;;;;;;21.05;42.55;100741.38;5072111;28;20037;-73
2022/11/02 10:00:14;;;;;;;9.90;4.63;;;;;;;21.41;41.81;100778.91;5072412;28;20031;-73
2022/11/02 10:02:45;;;;;;;15.45;4.75;;;;;;;21.63;41.09;100783.28;5069496;28;20043;-75
2022/11/02 10:05:54;;;;;;;13.95;4.20;;;;;;;21.57;41.06;100764.00;5063436;28;20035;-74
2022/11/02 10:08:34;;;;;;;13.20;4.85;;;;;;;21.77;40.76;100761.28;5007981;28;20523;-73
2022/11/02 10:11:25;;;;;;;13.82;4.88;;;;;;;21.36;40.49;100658.13;5009864;28;20038;-73
2022/11/02 10:13:54;;;;;;;11.48;4.90;;;;;;;21.87;40.32;100757.75;5009634;28;20092;-72
2022/11/02 10:16:24;;;;;;;11.50;4.22;;;;;;;21.99;40.68;100743.66;5009280;28;20058;-73
2022/11/02 10:18:53;;;;;;;16.35;5.35;;;;;;;21.94;40.48;100712.16;5009151;28;20040;-73
2022/11/02 10:21:22;;;;;;;19.48;8.98;;;;;;;22.11;39.78;100709.41;5009821;28;20046;-72
2022/11/02 10:23:52;;;;;;;15.48;6.90;;;;;;;22.44;39.71;100736.38;5009690;28;20442;-73
2022/11/02 10:26:31;;;;;;;18.15;5.63;;;;;;;22.20;39.62;100702.34;5008751;28;20042;-73
2022/11/02 10:29:17;;;;;;;18.95;5.70;;;;;;;22.43;39.72;100725.84;5008907;28;20041;-73
2022/11/02 10:31:43;;;;;;;18.90;5.20;;;;;;;22.73;39.09;100722.09;5009101;28;20053;-73
2022/11/02 10:34:27;;;;;;;12.15;4.93;;;;;;;22.81;39.11;100716.75;4993098;28;20034;-73
2022/11/02 10:37:13;;;;;;;15.90;5.35;;;;;;;22.85;38.79;100726.34;5009326;28;20160;-73
2022/11/02 10:39:55;;;;;;;16.08;4.90;;;;;;;22.74;38.28;100712.44;5055325;28;20040;-73
2022/11/02 10:42:36;;;;;;;15.10;5.07;;;;;;;22.76;38.15;100711.53;5070857;28;20028;-72
2022/11/02 10:45:30;;;;;;;17.42;5.38;;;;;;;22.88;38.34;100704.41;5057985;28;20547;-73
2022/11/02 10:48:27;;;;;;;18.15;5.47;;;;;;;23.13;37.38;100704.13;5048646;28;20052;-73
2022/11/02 10:50:58;;;;;;;18.77;11.30;;;;;;;23.21;37.57;100689.16;5032249;28;20128;-72
2022/11/02 10:53:24;;;;;;;16.20;5.88;;;;;;;23.49;37.06;100697.59;5031810;28;20029;-73
2022/11/02 10:55:49;;;;;;;11.23;5.38;;;;;;;23.65;36.89;100698.28;5048714;28;20029;-73
2022/11/02 10:58:18;;;;;;;15.45;5.13;;;;;;;23.63;35.87;100688.63;5048266;28;20041;-73
2022/11/02 11:00:46;;;;;;;12.20;4.47;;;;;;;23.46;35.67;100673.91;5048683;28;20464;-73
2022/11/02 11:03:16;;;;;;;13.60;5.15;;;;;;;23.45;36.17;100684.47;5033726;28;20041;-74
2022/11/02 11:05:56;;;;;;;12.32;5.07;;;;;;;23.59;36.25;100672.00;5026854;28;20037;-73
2022/11/02 11:08:40;;;;;;;13.93;5.28;;;;;;;23.83;35.61;100676.03;5042101;28;20052;-74
2022/11/02 11:11:18;;;;;;;16.05;5.13;;;;;;;24.02;35.24;100678.44;5048227;28;20114;-73
2022/11/02 11:13:53;;;;;;;11.65;4.97;;;;;;;23.90;35.40;100672.41;5030101;28;20040;-75
2022/11/02 11:16:21;;;;;;;16.63;5.00;;;;;;;23.97;35.42;100667.09;5048253;28;20704;-75
2022/11/02 11:18:50;;;;;;;10.00;4.90;;;;;;;23.83;34.94;100631.22;5027399;28;20755;-76
2022/11/02 11:21:17;;;;;;;14.88;4.40;;;;;;;24.10;34.75;100651.94;5028058;28;20422;-75
2022/11/02 11:23:42;;;;;;;15.07;4.40;;;;;;;24.31;34.33;100659.50;5028007;28;20072;-74
2022/11/02 11:26:26;;;;;;;15.75;4.63;;;;;;;24.41;34.04;100661.97;5027806;28;20617;-75
2022/11/02 11:28:54;;;;;;;17.63;4.95;;;;;;;24.46;33.86;100650.44;5027706;28;20677;-73
2022/11/02 11:31:20;;;;;;;22.80;5.20;;;;;;;24.43;34.22;100649.63;5026869;28;20487;-75
2022/11/02 11:33:50;;;;;;;22.40;5.20;;;;;;;24.37;33.85;100617.19;5028082;28;20152;-74
2022/11/02 11:36:26;;;;;;;17.70;4.55;;;;;;;24.67;33.52;100643.94;5027715;28;20052;-75
2022/11/02 11:38:55;;;;;;;15.55;4.32;;;;;;;24.74;32.90;100622.69;5027644;28;20041;-75